Terminal Aerodrome Forecast
Issued by NWS Omaha/Valley, NE

Home | Current Version | Previous Version | Text Only | Print | Product List | Glossary On
Versions: 1 2 3 4 5 6 7 8 9 10 11 12 13 14 15 16 17 18 19 20 21 22 23 24 25 26 27 28 29 30 31 32 33 34 35 36 37 38 39 40 41 42 43 44 45 46 47
000
FTUS43 KOAX 272324
TAFLNK
TAF
KLNK 272324Z 2800/2824 13007KT P6SM VCSH OVC100
      TEMPO 2800/2802 -SHRA SCT025 BKN040
     FM280400 12008KT 6SM -SHRA BR OVC070
      TEMPO 2810/2814 2SM TSRA BKN015CB
     FM281600 18011KT P6SM BKN050 PROB30 2820/2824 5SM -TSRA
      BKN035CB=

USA.gov is the U.S. government's official web portal to all federal, state and local government web resources and services.